Time;durP1;ratioP1;P1;durP2;ratioP2;P2;SDS_P1;SDS_P2;PMS_P1;PMS_P2;Temp;Humidity;BMP_temperature;BMP_pressure;BME280_temperature;BME280_humidity;BME280_pressure;Samples;Min_cycle;Max_cycle;Signal;HPM_P1;HPM_P2
2024/02/09 00:00:42;;;;;;;17.95;6.70;;;;;;;11.22;100.00;97808.59;10208471;28;21313;-64
2024/02/09 00:05:45;;;;;;;12.15;5.05;;;;;;;11.20;100.00;97809.78;10201049;28;20289;-65
2024/02/09 00:10:48;;;;;;;14.88;5.07;;;;;;;11.20;100.00;97799.97;10185355;28;20069;-65
2024/02/09 00:15:49;;;;;;;17.65;5.68;;;;;;;11.19;100.00;97787.66;10171811;28;20062;-64
2024/02/09 00:20:51;;;;;;;16.65;7.00;;;;;;;11.11;100.00;97783.28;10188658;28;20639;-64
2024/02/09 00:25:53;;;;;;;10.63;4.75;;;;;;;11.08;100.00;97767.69;10189209;28;20194;-64
2024/02/09 00:30:54;;;;;;;11.68;5.65;;;;;;;11.15;100.00;97775.75;10196812;28;20113;-64
2024/02/09 00:35:56;;;;;;;16.45;5.97;;;;;;;11.12;100.00;97776.97;10202091;28;20078;-63
2024/02/09 00:40:57;;;;;;;18.13;5.80;;;;;;;11.08;100.00;97766.84;10195136;28;20076;-64
2024/02/09 00:46:01;;;;;;;10.88;4.68;;;;;;;11.05;100.00;97753.91;10197485;28;20047;-62
2024/02/09 00:51:03;;;;;;;13.63;5.45;;;;;;;11.05;100.00;97760.09;10200642;28;20121;-62
2024/02/09 00:56:06;;;;;;;14.35;5.20;;;;;;;11.02;100.00;97746.31;10209601;28;20488;-61
2024/02/09 01:01:09;;;;;;;15.30;4.47;;;;;;;11.05;100.00;97738.78;10208490;28;20146;-62
2024/02/09 01:06:11;;;;;;;14.50;4.63;;;;;;;11.04;100.00;97739.78;10199417;28;20106;-63
2024/02/09 01:11:13;;;;;;;14.77;6.10;;;;;;;11.04;100.00;97731.00;10197666;28;20050;-62
2024/02/09 02:46:51;;;;;;;5.60;1.75;;;;;;;10.96;100.00;97671.53;10196079;28;20054;-63
2024/02/09 03:07:56;;;;;;;1.80;0.95;;;;;;;10.98;100.00;97633.25;10199606;28;20055;-62
2024/02/09 03:13:17;;;;;;;5.07;1.90;;;;;;;10.96;100.00;97644.09;10213384;28;20058;-56
2024/02/09 03:18:21;;;;;;;3.35;1.80;;;;;;;10.93;100.00;97639.97;10207210;28;21136;-63
2024/02/09 03:23:24;;;;;;;6.18;1.63;;;;;;;10.93;100.00;97625.84;10205606;28;20054;-63
2024/02/09 03:28:26;;;;;;;3.00;1.50;;;;;;;10.89;100.00;97625.38;10199704;28;20624;-63
2024/02/09 03:33:28;;;;;;;4.97;1.67;;;;;;;10.89;100.00;97628.03;10195990;28;20074;-62
2024/02/09 03:38:31;;;;;;;4.28;1.42;;;;;;;10.88;100.00;97631.72;10202350;28;20146;-61
2024/02/09 03:43:32;;;;;;;2.53;1.52;;;;;;;10.78;100.00;97615.25;10183911;28;20687;-65
2024/02/09 03:48:34;;;;;;;2.72;1.40;;;;;;;10.75;100.00;97615.63;10193659;28;20050;-64
2024/02/09 03:53:36;;;;;;;2.72;1.38;;;;;;;10.79;100.00;97616.88;10196959;28;20073;-61
2024/02/09 03:58:37;;;;;;;6.15;1.33;;;;;;;10.76;100.00;97619.94;10196924;28;20214;-63
2024/02/09 04:03:40;;;;;;;3.22;1.60;;;;;;;10.77;100.00;97624.25;10200900;28;20055;-63
2024/02/09 04:08:42;;;;;;;4.05;1.40;;;;;;;10.77;100.00;97618.94;10182641;28;20850;-63
2024/02/09 04:13:44;;;;;;;4.90;0.95;;;;;;;10.71;100.00;97628.47;10184907;28;20058;-62
2024/02/09 04:18:46;;;;;;;4.30;1.90;;;;;;;10.72;100.00;97614.16;10198938;28;20093;-62
2024/02/09 04:23:48;;;;;;;4.85;1.33;;;;;;;10.59;100.00;97593.56;10197392;28;20063;-61
2024/02/09 04:28:51;;;;;;;4.88;2.00;;;;;;;10.40;100.00;97570.25;10207566;28;20110;-64
2024/02/09 04:33:54;;;;;;;5.70;2.83;;;;;;;10.71;100.00;97601.88;10202352;28;20052;-64
2024/02/09 04:38:56;;;;;;;5.47;2.10;;;;;;;10.71;100.00;97599.22;10183326;28;20042;-61
2024/02/09 04:43:57;;;;;;;4.05;1.65;;;;;;;10.68;100.00;97604.91;10197090;28;20138;-61
2024/02/09 04:49:01;;;;;;;3.50;1.25;;;;;;;10.64;100.00;97594.84;10203049;28;20047;-63
2024/02/09 04:54:04;;;;;;;3.58;1.58;;;;;;;10.63;100.00;97590.53;10195921;28;20054;-62
2024/02/09 04:59:10;;;;;;;4.07;1.30;;;;;;;10.66;100.00;97587.47;10200728;28;20047;-60
2024/02/09 05:04:13;;;;;;;2.92;1.35;;;;;;;10.57;100.00;97597.44;10203665;28;20557;-63
2024/02/09 05:09:14;;;;;;;2.75;1.55;;;;;;;10.66;100.00;97601.63;10202059;28;20071;-64
2024/02/09 05:14:19;;;;;;;3.22;1.40;;;;;;;10.66;100.00;97592.81;10196560;28;20055;-63
2024/02/09 05:19:21;;;;;;;5.03;1.42;;;;;;;10.70;100.00;97583.44;10199965;28;20090;-64
2024/02/09 05:24:23;;;;;;;4.35;1.48;;;;;;;10.76;100.00;97582.69;10182103;28;20436;-61
2024/02/09 05:29:25;;;;;;;4.18;1.33;;;;;;;10.70;100.00;97570.13;10200512;28;20055;-64
2024/02/09 05:34:27;;;;;;;4.47;1.48;;;;;;;10.59;100.00;97556.31;10190269;28;20125;-61
2024/02/09 05:39:29;;;;;;;4.28;2.13;;;;;;;10.64;100.00;97576.22;10197576;28;20085;-66
2024/02/09 05:44:30;;;;;;;3.30;1.55;;;;;;;10.70;100.00;97575.47;10180163;28;20066;-62
2024/02/09 05:49:32;;;;;;;2.67;1.67;;;;;;;10.68;100.00;97582.81;10182618;28;20484;-64
2024/02/09 05:54:34;;;;;;;4.53;1.85;;;;;;;10.67;100.00;97583.81;10202653;28;20123;-62
2024/02/09 05:59:35;;;;;;;4.63;1.85;;;;;;;10.62;100.00;97584.38;10194861;28;20521;-66
2024/02/09 06:04:37;;;;;;;2.90;1.65;;;;;;;10.67;100.00;97591.81;10193516;28;20522;-65
2024/02/09 06:09:39;;;;;;;4.53;2.53;;;;;;;10.68;100.00;97588.13;10194183;28;20488;-64
2024/02/09 06:14:41;;;;;;;4.72;2.45;;;;;;;10.68;100.00;97583.63;10196190;28;20758;-64
2024/02/09 06:19:42;;;;;;;3.63;2.75;;;;;;;10.58;100.00;97583.13;10196892;28;20055;-64
2024/02/09 06:24:45;;;;;;;3.83;2.95;;;;;;;10.69;100.00;97589.75;10184139;28;20557;-63
2024/02/09 06:29:47;;;;;;;6.63;3.33;;;;;;;10.68;100.00;97586.28;10198750;28;20055;-62
2024/02/09 06:34:52;;;;;;;7.68;3.67;;;;;;;10.66;100.00;97587.47;10200113;28;20061;-65
2024/02/09 06:39:53;;;;;;;43.33;10.05;;;;;;;10.59;100.00;97580.25;10202498;28;20048;-65
2024/02/09 06:44:55;;;;;;;22.30;7.28;;;;;;;10.62;100.00;97589.72;10201425;28;20066;-62
2024/02/09 06:49:57;;;;;;;8.73;4.50;;;;;;;10.59;100.00;97590.91;10210185;28;20153;-64
2024/02/09 06:54:58;;;;;;;8.43;4.82;;;;;;;10.57;100.00;97582.28;10210596;28;20169;-63
2024/02/09 07:00:00;;;;;;;7.13;4.40;;;;;;;10.59;100.00;97585.59;10196870;28;20195;-63
2024/02/09 07:05:02;;;;;;;6.15;4.90;;;;;;;10.61;100.00;97583.56;10205618;28;20121;-63
2024/02/09 07:10:04;;;;;;;8.50;5.38;;;;;;;10.63;100.00;97585.19;10207352;28;20086;-65
2024/02/09 07:15:07;;;;;;;8.70;4.78;;;;;;;10.65;100.00;97589.31;10178164;28;20059;-64
2024/02/09 07:20:10;;;;;;;8.88;5.30;;;;;;;10.59;100.00;97574.94;10195475;28;20181;-61
2024/02/09 07:25:12;;;;;;;7.57;5.18;;;;;;;10.73;100.00;97583.06;10210514;28;20055;-62
2024/02/09 07:30:15;;;;;;;7.63;4.63;;;;;;;10.55;100.00;97567.53;10199596;28;20064;-62
2024/02/09 07:35:16;;;;;;;6.53;4.68;;;;;;;10.76;100.00;97601.31;10199603;28;20197;-62
2024/02/09 07:40:19;;;;;;;10.18;5.00;;;;;;;10.75;100.00;97605.00;10209177;28;20058;-63
2024/02/09 07:45:22;;;;;;;10.02;4.70;;;;;;;10.79;100.00;97607.09;10202098;28;20112;-64
2024/02/09 07:50:24;;;;;;;7.97;4.38;;;;;;;10.81;100.00;97598.91;10202158;28;20586;-64
2024/02/09 07:55:25;;;;;;;11.48;5.20;;;;;;;10.79;100.00;97598.25;10195329;28;20050;-64
2024/02/09 08:00:26;;;;;;;6.32;4.22;;;;;;;10.79;100.00;97598.25;10200477;28;20055;-64
2024/02/09 08:05:28;;;;;;;8.55;4.88;;;;;;;10.93;100.00;97604.56;10203559;28;20048;-64
2024/02/09 08:10:35;;;;;;;8.20;4.28;;;;;;;11.04;100.00;97609.34;10197470;28;20091;-66
2024/02/09 08:15:37;;;;;;;10.38;5.32;;;;;;;11.11;100.00;97598.78;10205876;28;20979;-64
2024/02/09 08:20:39;;;;;;;8.45;4.93;;;;;;;11.17;100.00;97611.31;10196875;28;20054;-64
2024/02/09 08:25:40;;;;;;;9.40;5.05;;;;;;;11.13;100.00;97604.72;10200096;28;20059;-65
2024/02/09 08:30:42;;;;;;;7.72;4.32;;;;;;;11.20;100.00;97612.75;10190269;28;20126;-64
2024/02/09 08:35:44;;;;;;;6.80;3.92;;;;;;;11.26;100.00;97596.00;10202627;28;20241;-64
2024/02/09 08:40:48;;;;;;;9.25;4.22;;;;;;;11.24;100.00;97604.19;10199836;28;20057;-66
2024/02/09 08:45:50;;;;;;;7.20;4.28;;;;;;;11.26;100.00;97604.84;10168173;28;20130;-65
2024/02/09 08:50:51;;;;;;;7.68;4.07;;;;;;;11.20;100.00;97594.97;10213500;28;20059;-64
2024/02/09 08:55:53;;;;;;;8.55;4.28;;;;;;;11.28;100.00;97588.66;10199579;28;20071;-66
2024/02/09 09:00:55;;;;;;;8.48;4.40;;;;;;;11.28;100.00;97578.00;10201484;28;20059;-63
2024/02/09 09:06:05;;;;;;;11.57;6.57;;;;;;;11.35;100.00;97588.69;10198005;28;20043;-65
2024/02/09 09:11:07;;;;;;;8.07;7.38;;;;;;;11.42;100.00;97584.25;10198669;28;20051;-65
2024/02/09 09:16:08;;;;;;;6.63;4.53;;;;;;;11.50;100.00;97592.09;10183292;28;20119;-67
2024/02/09 09:21:13;;;;;;;6.57;4.30;;;;;;;11.48;100.00;97580.81;10185002;28;20081;-64
2024/02/09 09:26:14;;;;;;;8.00;4.20;;;;;;;11.60;100.00;97592.56;10183804;28;20339;-65
2024/02/09 09:31:31;;;;;;;;;;;;;;;11.65;100.00;97584.00;10200575;28;20054;-66
2024/02/09 09:36:33;;;;;;;10.43;7.43;;;;;;;11.68;100.00;97595.09;10178567;28;20073;-64
2024/02/09 09:41:40;;;;;;;9.63;6.78;;;;;;;11.67;100.00;97588.09;10200995;28;20519;-65
2024/02/09 09:46:42;;;;;;;6.38;4.03;;;;;;;11.69;100.00;97593.22;10200978;28;20130;-66
2024/02/09 09:51:49;;;;;;;8.38;4.05;;;;;;;11.81;100.00;97574.84;10201522;28;20082;-64
2024/02/09 09:56:51;;;;;;;7.97;5.38;;;;;;;11.81;100.00;97572.19;10195709;28;20808;-66
2024/02/09 10:01:54;;;;;;;4.55;2.63;;;;;;;11.93;100.00;97581.31;10179112;28;20043;-65
2024/02/09 10:06:56;;;;;;;23.30;17.15;;;;;;;12.00;100.00;97582.16;10200683;28;20081;-65
2024/02/09 10:11:57;;;;;;;8.20;3.38;;;;;;;11.96;100.00;97575.56;10175803;28;20048;-63
2024/02/09 10:16:59;;;;;;;6.50;3.42;;;;;;;12.02;100.00;97582.81;10185339;28;20501;-65
2024/02/09 10:22:02;;;;;;;8.82;3.80;;;;;;;12.03;100.00;97581.75;10190661;28;20058;-64
2024/02/09 10:27:17;;;;;;;4.95;3.08;;;;;;;12.09;100.00;97582.81;10184478;28;20058;-64
2024/02/09 10:32:19;;;;;;;7.90;3.47;;;;;;;12.21;100.00;97591.06;10187156;28;20794;-64
2024/02/09 10:37:20;;;;;;;6.47;3.00;;;;;;;12.22;100.00;97578.56;10194643;28;20047;-64
2024/02/09 10:42:35;;;;;;;8.32;4.28;;;;;;;12.28;100.00;97583.94;10199658;28;20063;-64
2024/02/09 10:47:38;;;;;;;6.13;3.13;;;;;;;12.31;100.00;97575.53;10200563;28;20065;-65
2024/02/09 10:52:44;;;;;;;5.07;3.33;;;;;;;12.39;100.00;97574.53;10204096;28;20084;-65
2024/02/09 10:57:49;;;;;;;5.88;2.55;;;;;;;12.34;100.00;97572.47;10202833;28;20058;-64
2024/02/09 11:02:51;;;;;;;5.65;2.67;;;;;;;12.46;100.00;97558.53;10225292;28;20059;-64
2024/02/09 11:07:56;;;;;;;7.28;2.72;;;;;;;12.83;100.00;97570.50;10210125;28;20059;-66
2024/02/09 11:12:59;;;;;;;5.95;3.10;;;;;;;13.44;99.82;97550.81;10207053;28;20149;-65
2024/02/09 11:18:01;;;;;;;5.63;3.40;;;;;;;13.69;96.97;97549.31;10201316;28;20144;-65
2024/02/09 11:23:05;;;;;;;5.72;3.00;;;;;;;13.71;95.17;97545.41;10207466;28;20043;-64
2024/02/09 11:28:07;;;;;;;6.10;2.00;;;;;;;13.53;94.92;97539.91;10200583;28;20057;-64
2024/02/09 11:33:11;;;;;;;9.63;2.50;;;;;;;13.35;97.22;97529.88;10206026;28;20051;-64
2024/02/09 11:38:13;;;;;;;5.00;3.23;;;;;;;13.20;96.65;97527.38;10198663;28;20082;-65
2024/02/09 11:43:15;;;;;;;8.20;2.75;;;;;;;13.24;97.11;97510.75;10205511;28;20055;-64
2024/02/09 11:48:23;;;;;;;4.60;2.38;;;;;;;13.24;97.36;97507.22;10202197;28;20071;-65
2024/02/09 11:53:25;;;;;;;7.63;4.43;;;;;;;13.31;96.81;97515.25;10206535;28;20107;-64
2024/02/09 11:58:28;;;;;;;5.45;2.75;;;;;;;13.40;95.45;97496.13;10194087;28;20062;-63
2024/02/09 12:03:30;;;;;;;9.50;4.55;;;;;;;13.46;95.52;97499.00;10204981;28;20099;-65
2024/02/09 12:08:32;;;;;;;7.82;4.78;;;;;;;13.56;94.53;97497.53;10195229;28;20189;-64
2024/02/09 12:13:34;;;;;;;6.70;3.95;;;;;;;13.53;92.89;97489.13;10205315;28;20130;-63
2024/02/09 12:18:36;;;;;;;5.90;3.17;;;;;;;14.36;89.07;97484.84;10217357;28;20050;-64
2024/02/09 12:23:38;;;;;;;11.80;8.00;;;;;;;14.27;85.75;97481.59;10191692;28;20124;-64
2024/02/09 12:28:39;;;;;;;4.72;3.00;;;;;;;14.16;87.32;97480.44;10198973;28;20139;-62
2024/02/09 12:33:49;;;;;;;5.93;2.45;;;;;;;13.82;86.62;97471.75;10205207;28;20051;-64
2024/02/09 12:38:55;;;;;;;7.40;2.90;;;;;;;13.90;89.45;97486.72;10164278;28;20756;-65
2024/02/09 12:44:01;;;;;;;7.45;3.08;;;;;;;13.59;88.66;97461.56;10176941;28;20373;-66
2024/02/09 12:49:11;;;;;;;8.05;2.35;;;;;;;13.74;89.29;97494.19;10179967;28;20055;-65
2024/02/09 12:54:13;;;;;;;6.90;2.53;;;;;;;13.65;88.74;97500.81;10185580;28;20104;-63
2024/02/09 12:59:15;;;;;;;6.32;2.80;;;;;;;13.63;90.47;97502.03;10188427;28;20166;-64
2024/02/09 13:04:17;;;;;;;8.43;2.70;;;;;;;13.55;92.49;97492.41;10168275;28;20120;-66
2024/02/09 13:09:18;;;;;;;5.30;2.30;;;;;;;13.54;94.39;97507.63;10189450;28;20706;-64
2024/02/09 13:14:23;;;;;;;7.15;3.03;;;;;;;13.56;97.07;97496.72;10203133;28;20067;-63
2024/02/09 13:19:24;;;;;;;7.30;3.20;;;;;;;13.54;97.53;97480.06;10198168;28;20082;-66
2024/02/09 13:24:26;;;;;;;5.82;2.90;;;;;;;13.60;98.15;97492.59;10198805;28;20547;-63
2024/02/09 13:29:27;;;;;;;7.07;3.47;;;;;;;13.62;97.71;97493.22;10196938;28;21491;-64
2024/02/09 13:34:30;;;;;;;5.25;2.72;;;;;;;13.54;97.70;97486.25;10195664;28;20094;-64
2024/02/09 13:39:31;;;;;;;8.57;3.00;;;;;;;13.66;99.88;97466.88;10201888;28;20749;-64
2024/02/09 13:44:37;;;;;;;5.63;2.53;;;;;;;14.06;98.03;97483.56;10188244;28;20560;-65
2024/02/09 13:49:39;;;;;;;5.45;2.92;;;;;;;13.78;97.29;97436.59;10169947;28;20130;-64
2024/02/09 13:54:40;;;;;;;5.60;2.80;;;;;;;13.88;97.30;97470.88;10201513;28;20074;-62
2024/02/09 13:59:43;;;;;;;7.28;3.55;;;;;;;13.76;96.09;97468.06;10195786;28;20055;-63
2024/02/09 14:04:48;;;;;;;11.10;2.88;;;;;;;13.74;95.68;97470.13;10198774;28;20581;-64
2024/02/09 14:09:49;;;;;;;7.32;3.10;;;;;;;13.75;94.80;97471.78;10201801;28;20501;-63
2024/02/09 14:14:52;;;;;;;6.82;2.83;;;;;;;13.70;95.12;97466.22;10193753;28;20055;-63
2024/02/09 14:19:55;;;;;;;5.97;2.60;;;;;;;13.87;93.10;97457.75;10205881;28;20066;-63
2024/02/09 14:24:57;;;;;;;5.82;2.97;;;;;;;13.93;95.14;97451.53;10181389;28;20051;-64
2024/02/09 14:29:59;;;;;;;4.93;2.92;;;;;;;13.76;95.13;97452.03;10204444;28;20058;-65
2024/02/09 14:35:00;;;;;;;6.25;3.03;;;;;;;13.63;94.21;97448.59;10199361;28;20051;-64
2024/02/09 14:40:03;;;;;;;6.32;1.90;;;;;;;13.64;94.63;97456.41;10208812;28;20074;-64
2024/02/09 14:45:07;;;;;;;5.68;2.25;;;;;;;13.61;93.62;97449.59;10202701;28;20054;-63
2024/02/09 14:50:09;;;;;;;6.57;2.67;;;;;;;13.59;94.29;97450.88;10193253;28;20093;-65
2024/02/09 14:55:13;;;;;;;8.02;2.90;;;;;;;13.59;94.80;97446.34;10203631;28;21777;-63
2024/02/09 15:00:17;;;;;;;4.88;2.55;;;;;;;13.62;94.72;97442.44;10176296;28;20315;-64
2024/02/09 15:05:23;;;;;;;7.50;2.60;;;;;;;13.58;94.07;97438.53;10201186;28;20047;-64
2024/02/09 15:10:25;;;;;;;5.20;2.55;;;;;;;13.53;93.91;97435.69;10204526;28;20058;-65
2024/02/09 15:15:29;;;;;;;5.63;2.72;;;;;;;13.54;93.67;97431.97;10196070;28;20066;-65
2024/02/09 15:20:32;;;;;;;5.18;2.70;;;;;;;13.44;93.63;97419.88;10202478;28;20048;-64
2024/02/09 15:25:34;;;;;;;5.60;2.88;;;;;;;13.51;93.93;97429.72;10204669;28;20147;-65
2024/02/09 15:30:37;;;;;;;6.18;2.13;;;;;;;13.46;92.80;97429.53;10207828;28;20077;-64
2024/02/09 15:35:38;;;;;;;7.57;3.50;;;;;;;13.44;93.67;97443.94;10195174;28;20126;-63
2024/02/09 15:40:40;;;;;;;6.28;2.80;;;;;;;13.42;93.54;97443.31;10203906;28;20054;-63
2024/02/09 15:45:44;;;;;;;5.68;2.60;;;;;;;13.41;94.01;97438.19;10209863;28;20154;-63
2024/02/09 15:50:48;;;;;;;7.10;2.85;;;;;;;13.36;94.24;97433.47;10196495;28;20058;-64
2024/02/09 15:55:52;;;;;;;7.80;2.97;;;;;;;13.24;94.70;97416.41;10173566;28;20059;-63
2024/02/09 16:00:54;;;;;;;5.55;2.92;;;;;;;13.35;94.72;97439.03;10212407;28;20244;-63
2024/02/09 16:05:55;;;;;;;8.20;3.30;;;;;;;13.37;94.99;97437.78;10202995;28;20058;-64
2024/02/09 16:10:57;;;;;;;6.82;3.15;;;;;;;13.39;94.61;97434.88;10201600;28;20059;-64
2024/02/09 16:15:59;;;;;;;9.18;3.67;;;;;;;13.37;94.72;97435.09;10189268;28;20057;-64
2024/02/09 16:21:01;;;;;;;4.15;2.45;;;;;;;13.35;95.08;97423.00;10169614;28;20055;-63
2024/02/09 16:26:03;;;;;;;4.82;2.58;;;;;;;13.41;94.58;97425.66;10183194;28;20518;-63
2024/02/09 16:31:08;;;;;;;4.30;2.70;;;;;;;13.38;93.45;97420.72;10203359;28;20075;-63
2024/02/09 16:36:10;;;;;;;7.15;3.50;;;;;;;13.38;93.54;97426.06;10190794;28;20671;-64
2024/02/09 16:41:11;;;;;;;8.98;3.92;;;;;;;13.37;92.90;97431.63;10197362;28;20063;-62
2024/02/09 16:46:17;;;;;;;7.63;3.33;;;;;;;13.38;92.75;97441.28;10200190;28;20048;-63
2024/02/09 16:51:19;;;;;;;5.60;2.85;;;;;;;13.39;92.39;97442.91;10185308;28;20051;-64
2024/02/09 16:56:23;;;;;;;5.40;2.75;;;;;;;13.40;92.75;97445.38;10202235;28;20517;-63
2024/02/09 17:01:25;;;;;;;6.30;2.60;;;;;;;13.30;92.50;97442.31;10194937;28;20958;-62
2024/02/09 17:06:27;;;;;;;7.05;3.80;;;;;;;13.27;92.50;97437.38;10188390;28;20589;-62
2024/02/09 17:11:28;;;;;;;5.82;3.40;;;;;;;13.30;92.17;97444.97;10195274;28;20509;-63
2024/02/09 17:16:30;;;;;;;6.40;2.95;;;;;;;13.26;91.63;97441.88;10193505;28;20196;-63
2024/02/09 17:21:31;;;;;;;23.45;18.30;;;;;;;13.23;91.71;97441.50;10195507;28;20066;-63
2024/02/09 17:26:34;;;;;;;8.18;4.20;;;;;;;13.22;90.78;97453.19;10201682;28;20070;-65
2024/02/09 17:31:35;;;;;;;10.73;9.15;;;;;;;13.25;92.36;97453.59;10196826;28;20071;-63
2024/02/09 17:36:37;;;;;;;9.70;7.15;;;;;;;13.26;92.30;97454.44;10204614;28;20051;-63
2024/02/09 17:41:38;;;;;;;123.03;109.43;;;;;;;13.23;91.18;97452.19;10191854;28;20044;-63
2024/02/09 17:46:40;;;;;;;35.17;27.63;;;;;;;13.20;91.27;97457.94;10198966;28;20051;-65
2024/02/09 17:51:41;;;;;;;14.18;11.43;;;;;;;13.19;91.73;97464.31;10199334;28;20055;-64
2024/02/09 17:56:43;;;;;;;55.13;49.58;;;;;;;13.16;92.17;97467.41;10181008;28;20142;-63
2024/02/09 18:01:44;;;;;;;15.85;14.20;;;;;;;13.16;92.33;97468.22;10217847;28;20165;-64
2024/02/09 18:06:46;;;;;;;8.52;7.13;;;;;;;13.07;92.53;97470.25;10197797;28;20061;-63
2024/02/09 18:11:48;;;;;;;5.60;3.13;;;;;;;13.05;93.30;97476.88;10181910;28;20157;-64
2024/02/09 18:16:50;;;;;;;6.53;5.05;;;;;;;13.01;94.00;97471.09;10206379;28;20071;-64
2024/02/09 18:21:53;;;;;;;6.22;4.53;;;;;;;12.98;95.10;97476.84;10197971;28;20134;-64
2024/02/09 18:26:55;;;;;;;7.18;3.30;;;;;;;12.90;95.32;97459.19;10194522;28;20089;-63
2024/02/09 18:31:58;;;;;;;7.68;3.30;;;;;;;12.96;95.96;97468.25;10181739;28;20127;-63
2024/02/09 18:36:59;;;;;;;5.25;2.88;;;;;;;12.82;97.16;97474.59;10207598;28;20421;-63
2024/02/09 18:42:01;;;;;;;8.20;3.03;;;;;;;12.72;98.30;97475.84;10204043;28;20211;-63
2024/02/09 18:47:04;;;;;;;7.03;6.38;;;;;;;12.66;99.61;97474.00;10215108;28;20175;-63
2024/02/09 18:52:05;;;;;;;8.15;6.80;;;;;;;12.55;100.00;97479.97;10202364;28;20185;-64
2024/02/09 18:57:06;;;;;;;4.57;2.97;;;;;;;12.53;100.00;97482.00;10205685;28;20061;-63
2024/02/09 19:02:08;;;;;;;6.03;4.07;;;;;;;12.50;100.00;97485.88;10202394;28;20058;-63
2024/02/09 19:07:09;;;;;;;4.03;2.80;;;;;;;12.44;100.00;97484.03;10203508;28;20055;-63
2024/02/09 19:12:12;;;;;;;4.18;2.25;;;;;;;12.40;100.00;97495.31;10205687;28;20696;-64
2024/02/09 19:17:15;;;;;;;5.47;2.40;;;;;;;12.28;100.00;97492.41;10206184;28;20043;-64
2024/02/09 19:22:18;;;;;;;5.97;3.60;;;;;;;12.32;100.00;97488.31;10208146;28;20421;-63
2024/02/09 19:27:20;;;;;;;3.83;2.90;;;;;;;12.38;100.00;97491.03;10206093;28;20071;-63
2024/02/09 19:32:24;;;;;;;4.13;3.03;;;;;;;12.34;100.00;97491.59;10200742;28;20481;-64
2024/02/09 19:37:27;;;;;;;4.93;2.95;;;;;;;12.22;100.00;97487.88;10189948;28;20452;-63
2024/02/09 19:42:29;;;;;;;4.18;3.45;;;;;;;12.14;100.00;97486.22;10189945;28;20051;-63
2024/02/09 19:47:39;;;;;;;6.03;4.05;;;;;;;12.10;100.00;97482.31;10203837;28;20655;-64
2024/02/09 19:52:43;;;;;;;5.75;3.58;;;;;;;12.07;100.00;97483.56;10193789;28;20110;-63
2024/02/09 19:57:47;;;;;;;6.00;4.45;;;;;;;12.17;100.00;97485.81;10195694;28;20058;-63
2024/02/09 20:02:53;;;;;;;6.85;4.75;;;;;;;12.13;100.00;97482.75;10203448;28;20150;-62
2024/02/09 20:08:06;;;;;;;6.13;4.20;;;;;;;12.10;100.00;97482.31;10197523;28;20055;-65
2024/02/09 20:13:08;;;;;;;4.55;4.07;;;;;;;12.01;100.00;97484.38;10204236;28;20067;-63
2024/02/09 20:18:15;;;;;;;5.22;4.22;;;;;;;12.07;100.00;97480.06;10201692;28;20149;-64
2024/02/09 20:23:16;;;;;;;6.60;4.30;;;;;;;11.92;100.00;97481.03;10186733;28;20082;-64
2024/02/09 20:28:19;;;;;;;5.25;3.90;;;;;;;11.83;100.00;97485.69;10200614;28;20071;-63
2024/02/09 20:33:22;;;;;;;4.95;4.10;;;;;;;11.82;100.00;97488.56;10205010;28;20765;-63
2024/02/09 20:38:25;;;;;;;4.28;3.58;;;;;;;11.85;100.00;97494.31;10196220;28;20555;-63
2024/02/09 20:43:26;;;;;;;6.10;3.35;;;;;;;11.72;100.00;97482.78;10203822;28;20057;-64
2024/02/09 20:48:28;;;;;;;5.15;3.33;;;;;;;11.83;100.00;97495.53;10196991;28;20052;-66
2024/02/09 20:53:36;;;;;;;4.47;3.55;;;;;;;11.83;100.00;97490.22;10200599;28;20065;-64
2024/02/09 20:58:40;;;;;;;3.95;3.05;;;;;;;11.83;100.00;97495.53;10207325;28;20067;-64
2024/02/09 21:03:42;;;;;;;;;;;;;;;11.82;100.00;97496.56;10202113;28;20453;-63
2024/02/09 21:08:45;;;;;;;3.00;2.35;;;;;;;11.77;100.00;97490.97;10213258;28;20977;-63
2024/02/09 21:13:46;;;;;;;6.40;5.88;;;;;;;11.79;100.00;97483.63;10196238;28;20062;-63
2024/02/09 21:18:48;;;;;;;13.50;8.25;;;;;;;11.80;100.00;97479.91;10194446;28;20051;-63
2024/02/09 21:23:50;;;;;;;4.68;2.63;;;;;;;11.73;100.00;97473.78;10194090;28;21032;-64
2024/02/09 21:28:52;;;;;;;32.33;19.10;;;;;;;11.75;100.00;97483.19;10189906;28;20051;-62
2024/02/09 21:33:54;;;;;;;10.77;8.45;;;;;;;11.78;100.00;97479.31;10210161;28;20589;-63
2024/02/09 21:38:57;;;;;;;5.30;3.95;;;;;;;11.78;100.00;97477.47;10179098;28;20054;-64
2024/02/09 21:44:02;;;;;;;5.60;4.93;;;;;;;11.77;100.00;97464.34;10192853;28;20162;-64
2024/02/09 21:49:04;;;;;;;2.30;1.45;;;;;;;11.84;100.00;97467.84;10192892;28;20085;-63
2024/02/09 21:54:09;;;;;;;1.80;1.63;;;;;;;11.84;100.00;97468.69;10200671;28;20069;-63
2024/02/09 21:59:10;;;;;;;6.00;4.10;;;;;;;11.76;100.00;97457.38;10198249;28;20051;-63
2024/02/09 22:04:16;;;;;;;2.38;1.58;;;;;;;11.68;100.00;97453.88;10160153;28;20147;-63
2024/02/09 22:09:17;;;;;;;11.88;8.88;;;;;;;11.74;100.00;97470.06;10192870;28;20069;-64
2024/02/09 22:14:20;;;;;;;4.95;2.88;;;;;;;11.67;100.00;97470.88;10208797;28;20185;-63
2024/02/09 22:19:21;;;;;;;11.10;10.30;;;;;;;11.66;100.00;97474.56;10198894;28;20552;-63
2024/02/09 22:24:27;;;;;;;2.92;2.67;;;;;;;11.67;100.00;97484.19;10192391;28;20075;-63
2024/02/09 22:29:29;;;;;;;7.13;6.47;;;;;;;11.64;100.00;97476.59;10219791;28;20138;-64
2024/02/09 22:34:31;;;;;;;5.90;5.35;;;;;;;11.63;100.00;97474.13;10192777;28;20142;-64
2024/02/09 22:39:32;;;;;;;3.85;1.50;;;;;;;11.60;100.00;97467.34;10213754;28;20043;-63
2024/02/09 22:44:42;;;;;;;3.63;2.70;;;;;;;11.66;100.00;97482.56;10210744;28;20059;-64
2024/02/09 22:49:46;;;;;;;2.15;1.35;;;;;;;11.67;100.00;97481.53;10201620;28;20130;-63
2024/02/09 22:54:51;;;;;;;2.05;1.30;;;;;;;11.73;100.00;97481.75;10201357;28;20059;-64
2024/02/09 22:59:52;;;;;;;2.97;0.97;;;;;;;11.76;100.00;97484.03;10208040;28;20721;-64
2024/02/09 23:04:56;;;;;;;2.20;1.05;;;;;;;11.75;100.00;97490.38;10214557;28;20053;-64
2024/02/09 23:09:58;;;;;;;2.80;1.17;;;;;;;11.71;100.00;97489.13;10205876;28;20068;-64
2024/02/09 23:14:59;;;;;;;1.38;1.23;;;;;;;11.70;100.00;97490.16;10199420;28;20299;-64
2024/02/09 23:20:03;;;;;;;2.03;1.10;;;;;;;11.72;100.00;97498.75;10204145;28;20070;-64
2024/02/09 23:25:06;;;;;;;1.58;0.95;;;;;;;11.64;100.00;97505.91;10196548;28;20047;-63
2024/02/09 23:30:11;;;;;;;1.20;0.60;;;;;;;11.56;100.00;97484.75;10207318;28;20147;-63
2024/02/09 23:35:13;;;;;;;1.75;1.00;;;;;;;11.66;100.00;97503.88;10202341;28;20053;-64
2024/02/09 23:40:14;;;;;;;2.35;1.42;;;;;;;11.60;100.00;97504.63;10202801;28;20059;-64
2024/02/09 23:45:17;;;;;;;3.08;1.50;;;;;;;11.54;100.00;97497.44;10206901;28;20436;-64
2024/02/09 23:50:20;;;;;;;3.08;2.22;;;;;;;11.60;100.00;97495.84;10187710;28;20138;-64
2024/02/09 23:55:22;;;;;;;2.25;1.92;;;;;;;11.58;100.00;97492.56;10204991;28;20062;-64
